sensor_id;sensor_type;location;lat;lon;timestamp;P1;durP1;ratioP1;P2;durP2;ratioP2
34146;SDS011;20423;49.448;9.056;2022-10-13T00:00:38;256.75;;;75.82;;
34146;SDS011;20423;49.448;9.056;2022-10-13T00:03:20;247.70;;;71.00;;
34146;SDS011;20423;49.448;9.056;2022-10-13T00:05:47;240.73;;;70.85;;
34146;SDS011;20423;49.448;9.056;2022-10-13T00:08:15;253.40;;;75.30;;
34146;SDS011;20423;49.448;9.056;2022-10-13T00:10:44;262.83;;;71.40;;
34146;SDS011;20423;49.448;9.056;2022-10-13T00:13:11;233.98;;;69.28;;
34146;SDS011;20423;49.448;9.056;2022-10-13T00:19:25;214.93;;;63.25;;
34146;SDS011;20423;49.448;9.056;2022-10-13T00:21:51;223.57;;;67.63;;
34146;SDS011;20423;49.448;9.056;2022-10-13T00:24:17;245.25;;;68.38;;
34146;SDS011;20423;49.448;9.056;2022-10-13T00:26:45;233.23;;;69.63;;
34146;SDS011;20423;49.448;9.056;2022-10-13T00:29:17;216.02;;;64.53;;
34146;SDS011;20423;49.448;9.056;2022-10-13T00:31:43;198.80;;;61.28;;
34146;SDS011;20423;49.448;9.056;2022-10-13T00:34:08;191.27;;;59.53;;
34146;SDS011;20423;49.448;9.056;2022-10-13T00:36:34;180.95;;;57.85;;
34146;SDS011;20423;49.448;9.056;2022-10-13T00:39:00;194.60;;;61.13;;
34146;SDS011;20423;49.448;9.056;2022-10-13T00:41:25;194.27;;;58.80;;
34146;SDS011;20423;49.448;9.056;2022-10-13T00:46:23;193.13;;;59.90;;
34146;SDS011;20423;49.448;9.056;2022-10-13T00:48:55;193.13;;;59.15;;
34146;SDS011;20423;49.448;9.056;2022-10-13T00:51:26;197.57;;;57.63;;
34146;SDS011;20423;49.448;9.056;2022-10-13T00:53:56;204.73;;;60.88;;
34146;SDS011;20423;49.448;9.056;2022-10-13T00:56:23;201.52;;;59.83;;
34146;SDS011;20423;49.448;9.056;2022-10-13T00:58:51;192.02;;;60.22;;
34146;SDS011;20423;49.448;9.056;2022-10-13T01:01:18;183.13;;;55.83;;
34146;SDS011;20423;49.448;9.056;2022-10-13T01:03:44;190.52;;;57.55;;
34146;SDS011;20423;49.448;9.056;2022-10-13T01:06:10;204.60;;;62.92;;
34146;SDS011;20423;49.448;9.056;2022-10-13T01:08:37;196.98;;;58.75;;
34146;SDS011;20423;49.448;9.056;2022-10-13T01:29:54;195.00;;;59.95;;
34146;SDS011;20423;49.448;9.056;2022-10-13T01:35:23;211.20;;;64.38;;
34146;SDS011;20423;49.448;9.056;2022-10-13T01:43:30;234.07;;;62.45;;
34146;SDS011;20423;49.448;9.056;2022-10-13T01:48:54;204.68;;;60.50;;
34146;SDS011;20423;49.448;9.056;2022-10-13T01:51:22;212.30;;;60.92;;
34146;SDS011;20423;49.448;9.056;2022-10-13T01:53:51;216.77;;;66.00;;
34146;SDS011;20423;49.448;9.056;2022-10-13T01:56:29;216.25;;;61.42;;
34146;SDS011;20423;49.448;9.056;2022-10-13T01:58:55;224.18;;;61.63;;
34146;SDS011;20423;49.448;9.056;2022-10-13T02:06:57;480.65;;;83.78;;
34146;SDS011;20423;49.448;9.056;2022-10-13T02:12:29;590.78;;;93.93;;
34146;SDS011;20423;49.448;9.056;2022-10-13T02:15:00;657.22;;;99.10;;
34146;SDS011;20423;49.448;9.056;2022-10-13T02:17:28;507.33;;;90.63;;
34146;SDS011;20423;49.448;9.056;2022-10-13T02:19:55;567.35;;;89.82;;
34146;SDS011;20423;49.448;9.056;2022-10-13T02:22:23;852.83;;;99.55;;
34146;SDS011;20423;49.448;9.056;2022-10-13T02:24:54;588.92;;;89.68;;
34146;SDS011;20423;49.448;9.056;2022-10-13T02:27:20;559.63;;;94.50;;
34146;SDS011;20423;49.448;9.056;2022-10-13T02:29:54;566.30;;;90.13;;
34146;SDS011;20423;49.448;9.056;2022-10-13T02:32:36;540.00;;;88.72;;
34146;SDS011;20423;49.448;9.056;2022-10-13T02:35:02;436.65;;;79.82;;
34146;SDS011;20423;49.448;9.056;2022-10-13T02:37:28;403.70;;;73.82;;
34146;SDS011;20423;49.448;9.056;2022-10-13T02:39:54;226.82;;;66.43;;
34146;SDS011;20423;49.448;9.056;2022-10-13T02:42:19;162.20;;;61.75;;
34146;SDS011;20423;49.448;9.056;2022-10-13T02:44:45;265.50;;;73.20;;
34146;SDS011;20423;49.448;9.056;2022-10-13T02:47:10;483.20;;;83.00;;
34146;SDS011;20423;49.448;9.056;2022-10-13T02:49:37;173.18;;;60.45;;
34146;SDS011;20423;49.448;9.056;2022-10-13T02:52:02;171.15;;;60.33;;
34146;SDS011;20423;49.448;9.056;2022-10-13T02:54:28;244.25;;;68.38;;
34146;SDS011;20423;49.448;9.056;2022-10-13T02:56:54;332.17;;;73.72;;
34146;SDS011;20423;49.448;9.056;2022-10-13T03:03:06;181.18;;;59.63;;
34146;SDS011;20423;49.448;9.056;2022-10-13T03:05:33;183.75;;;61.97;;
34146;SDS011;20423;49.448;9.056;2022-10-13T03:07:59;161.93;;;57.70;;
34146;SDS011;20423;49.448;9.056;2022-10-13T03:10:24;161.90;;;57.72;;
34146;SDS011;20423;49.448;9.056;2022-10-13T03:12:53;267.88;;;70.15;;
34146;SDS011;20423;49.448;9.056;2022-10-13T03:15:35;245.20;;;66.90;;
34146;SDS011;20423;49.448;9.056;2022-10-13T03:18:04;251.60;;;64.22;;
34146;SDS011;20423;49.448;9.056;2022-10-13T03:20:30;327.33;;;79.00;;
34146;SDS011;20423;49.448;9.056;2022-10-13T03:22:56;233.40;;;67.93;;
34146;SDS011;20423;49.448;9.056;2022-10-13T03:25:21;248.95;;;67.93;;
34146;SDS011;20423;49.448;9.056;2022-10-13T03:27:50;268.67;;;68.88;;
34146;SDS011;20423;49.448;9.056;2022-10-13T03:30:16;302.65;;;68.65;;
34146;SDS011;20423;49.448;9.056;2022-10-13T03:32:42;395.40;;;76.18;;
34146;SDS011;20423;49.448;9.056;2022-10-13T03:35:08;283.45;;;69.05;;
34146;SDS011;20423;49.448;9.056;2022-10-13T03:37:33;277.88;;;69.35;;
34146;SDS011;20423;49.448;9.056;2022-10-13T03:39:59;423.60;;;79.85;;
34146;SDS011;20423;49.448;9.056;2022-10-13T03:42:25;314.65;;;70.88;;
34146;SDS011;20423;49.448;9.056;2022-10-13T03:44:51;318.88;;;72.68;;
34146;SDS011;20423;49.448;9.056;2022-10-13T03:47:16;351.30;;;73.05;;
34146;SDS011;20423;49.448;9.056;2022-10-13T03:49:42;270.70;;;69.85;;
34146;SDS011;20423;49.448;9.056;2022-10-13T03:52:08;301.98;;;69.03;;
34146;SDS011;20423;49.448;9.056;2022-10-13T03:54:33;409.90;;;75.90;;
34146;SDS011;20423;49.448;9.056;2022-10-13T03:57:00;323.63;;;67.65;;
34146;SDS011;20423;49.448;9.056;2022-10-13T03:59:26;404.80;;;70.57;;
34146;SDS011;20423;49.448;9.056;2022-10-13T04:01:53;180.20;;;56.90;;
34146;SDS011;20423;49.448;9.056;2022-10-13T04:04:19;214.07;;;59.60;;
34146;SDS011;20423;49.448;9.056;2022-10-13T04:06:47;371.15;;;66.88;;
34146;SDS011;20423;49.448;9.056;2022-10-13T04:09:12;259.02;;;58.55;;
34146;SDS011;20423;49.448;9.056;2022-10-13T04:11:38;317.27;;;59.75;;
34146;SDS011;20423;49.448;9.056;2022-10-13T04:14:04;259.67;;;61.17;;
34146;SDS011;20423;49.448;9.056;2022-10-13T04:16:30;349.08;;;67.72;;
34146;SDS011;20423;49.448;9.056;2022-10-13T04:18:58;431.50;;;65.60;;
34146;SDS011;20423;49.448;9.056;2022-10-13T04:21:26;212.20;;;52.85;;
34146;SDS011;20423;49.448;9.056;2022-10-13T04:23:53;246.35;;;52.47;;
34146;SDS011;20423;49.448;9.056;2022-10-13T04:26:22;204.18;;;52.00;;
34146;SDS011;20423;49.448;9.056;2022-10-13T04:28:49;214.68;;;48.05;;
34146;SDS011;20423;49.448;9.056;2022-10-13T04:31:17;134.88;;;40.70;;
34146;SDS011;20423;49.448;9.056;2022-10-13T04:33:43;158.70;;;42.00;;
34146;SDS011;20423;49.448;9.056;2022-10-13T04:36:10;143.30;;;42.17;;
34146;SDS011;20423;49.448;9.056;2022-10-13T04:38:37;145.10;;;38.72;;
34146;SDS011;20423;49.448;9.056;2022-10-13T04:41:04;127.10;;;38.92;;
34146;SDS011;20423;49.448;9.056;2022-10-13T04:46:26;186.43;;;41.22;;
34146;SDS011;20423;49.448;9.056;2022-10-13T04:48:54;154.77;;;38.38;;
34146;SDS011;20423;49.448;9.056;2022-10-13T04:51:22;132.65;;;37.17;;
34146;SDS011;20423;49.448;9.056;2022-10-13T04:53:53;150.27;;;38.38;;
34146;SDS011;20423;49.448;9.056;2022-10-13T04:56:23;379.90;;;48.50;;
34146;SDS011;20423;49.448;9.056;2022-10-13T04:58:49;339.92;;;48.45;;
34146;SDS011;20423;49.448;9.056;2022-10-13T05:01:16;167.18;;;37.65;;
34146;SDS011;20423;49.448;9.056;2022-10-13T05:04:05;173.88;;;41.92;;
34146;SDS011;20423;49.448;9.056;2022-10-13T05:06:34;161.25;;;40.63;;
34146;SDS011;20423;49.448;9.056;2022-10-13T05:09:02;170.55;;;41.35;;
34146;SDS011;20423;49.448;9.056;2022-10-13T05:11:28;172.00;;;40.72;;
34146;SDS011;20423;49.448;9.056;2022-10-13T05:13:55;240.00;;;45.70;;
34146;SDS011;20423;49.448;9.056;2022-10-13T05:16:21;281.65;;;48.60;;
34146;SDS011;20423;49.448;9.056;2022-10-13T05:18:49;223.57;;;45.78;;
34146;SDS011;20423;49.448;9.056;2022-10-13T05:21:16;155.48;;;40.33;;
34146;SDS011;20423;49.448;9.056;2022-10-13T05:23:44;162.23;;;36.72;;
34146;SDS011;20423;49.448;9.056;2022-10-13T05:26:14;154.15;;;37.83;;
34146;SDS011;20423;49.448;9.056;2022-10-13T05:28:41;173.10;;;39.65;;
34146;SDS011;20423;49.448;9.056;2022-10-13T05:31:11;193.98;;;40.33;;
34146;SDS011;20423;49.448;9.056;2022-10-13T05:37:24;158.43;;;38.80;;
34146;SDS011;20423;49.448;9.056;2022-10-13T05:39:50;151.15;;;37.28;;
34146;SDS011;20423;49.448;9.056;2022-10-13T05:42:16;176.25;;;37.85;;
34146;SDS011;20423;49.448;9.056;2022-10-13T05:44:41;236.82;;;42.90;;
34146;SDS011;20423;49.448;9.056;2022-10-13T05:47:07;238.48;;;40.70;;
34146;SDS011;20423;49.448;9.056;2022-10-13T05:49:33;300.85;;;49.25;;
34146;SDS011;20423;49.448;9.056;2022-10-13T05:52:01;180.23;;;46.40;;
34146;SDS011;20423;49.448;9.056;2022-10-13T05:54:35;169.32;;;42.92;;
34146;SDS011;20423;49.448;9.056;2022-10-13T05:57:13;202.75;;;43.55;;
34146;SDS011;20423;49.448;9.056;2022-10-13T05:59:49;242.02;;;45.03;;
34146;SDS011;20423;49.448;9.056;2022-10-13T06:02:17;222.07;;;44.30;;
34146;SDS011;20423;49.448;9.056;2022-10-13T06:04:46;182.60;;;42.50;;
34146;SDS011;20423;49.448;9.056;2022-10-13T06:07:14;159.93;;;38.45;;
34146;SDS011;20423;49.448;9.056;2022-10-13T06:09:41;243.10;;;47.45;;
34146;SDS011;20423;49.448;9.056;2022-10-13T06:12:07;278.48;;;48.50;;
34146;SDS011;20423;49.448;9.056;2022-10-13T06:14:34;281.40;;;46.53;;
34146;SDS011;20423;49.448;9.056;2022-10-13T06:17:04;239.07;;;42.28;;
34146;SDS011;20423;49.448;9.056;2022-10-13T06:19:30;271.42;;;48.88;;
34146;SDS011;20423;49.448;9.056;2022-10-13T06:22:03;319.63;;;51.13;;
34146;SDS011;20423;49.448;9.056;2022-10-13T06:24:29;254.63;;;46.50;;
34146;SDS011;20423;49.448;9.056;2022-10-13T06:26:55;373.25;;;48.83;;
34146;SDS011;20423;49.448;9.056;2022-10-13T06:29:21;269.13;;;39.20;;
34146;SDS011;20423;49.448;9.056;2022-10-13T06:31:47;247.48;;;40.97;;
34146;SDS011;20423;49.448;9.056;2022-10-13T06:34:13;257.52;;;40.00;;
34146;SDS011;20423;49.448;9.056;2022-10-13T06:36:42;269.85;;;40.65;;
34146;SDS011;20423;49.448;9.056;2022-10-13T06:39:10;257.67;;;42.05;;
34146;SDS011;20423;49.448;9.056;2022-10-13T06:41:36;359.63;;;55.70;;
34146;SDS011;20423;49.448;9.056;2022-10-13T06:44:02;381.75;;;55.35;;
34146;SDS011;20423;49.448;9.056;2022-10-13T06:46:28;335.92;;;47.75;;
34146;SDS011;20423;49.448;9.056;2022-10-13T06:48:54;543.08;;;55.80;;
34146;SDS011;20423;49.448;9.056;2022-10-13T06:51:20;596.70;;;57.30;;
34146;SDS011;20423;49.448;9.056;2022-10-13T06:53:46;231.73;;;41.67;;
34146;SDS011;20423;49.448;9.056;2022-10-13T06:56:11;329.55;;;50.33;;
34146;SDS011;20423;49.448;9.056;2022-10-13T06:58:38;330.85;;;53.80;;
34146;SDS011;20423;49.448;9.056;2022-10-13T07:01:04;473.65;;;64.75;;
34146;SDS011;20423;49.448;9.056;2022-10-13T07:03:31;406.17;;;57.85;;
34146;SDS011;20423;49.448;9.056;2022-10-13T07:06:01;368.77;;;52.92;;
34146;SDS011;20423;49.448;9.056;2022-10-13T07:08:30;407.55;;;58.97;;
34146;SDS011;20423;49.448;9.056;2022-10-13T07:10:57;339.35;;;54.83;;
34146;SDS011;20423;49.448;9.056;2022-10-13T07:13:22;393.73;;;55.40;;
34146;SDS011;20423;49.448;9.056;2022-10-13T07:15:48;272.42;;;54.03;;
34146;SDS011;20423;49.448;9.056;2022-10-13T07:18:14;308.98;;;65.63;;
34146;SDS011;20423;49.448;9.056;2022-10-13T07:20:40;312.73;;;71.30;;
34146;SDS011;20423;49.448;9.056;2022-10-13T07:23:05;351.27;;;76.10;;
34146;SDS011;20423;49.448;9.056;2022-10-13T07:25:31;268.58;;;72.85;;
34146;SDS011;20423;49.448;9.056;2022-10-13T07:27:57;284.70;;;78.93;;
34146;SDS011;20423;49.448;9.056;2022-10-13T07:30:24;309.75;;;81.80;;
34146;SDS011;20423;49.448;9.056;2022-10-13T07:32:50;363.38;;;86.15;;
34146;SDS011;20423;49.448;9.056;2022-10-13T07:35:16;298.10;;;79.55;;
34146;SDS011;20423;49.448;9.056;2022-10-13T07:41:29;229.80;;;67.55;;
34146;SDS011;20423;49.448;9.056;2022-10-13T07:43:55;191.07;;;63.55;;
34146;SDS011;20423;49.448;9.056;2022-10-13T07:46:21;158.57;;;56.97;;
34146;SDS011;20423;49.448;9.056;2022-10-13T07:48:47;123.07;;;49.00;;
34146;SDS011;20423;49.448;9.056;2022-10-13T07:51:13;103.75;;;42.00;;
34146;SDS011;20423;49.448;9.056;2022-10-13T07:53:40;81.47;;;37.40;;
34146;SDS011;20423;49.448;9.056;2022-10-13T07:56:07;85.28;;;35.55;;
34146;SDS011;20423;49.448;9.056;2022-10-13T07:58:39;75.28;;;33.65;;
34146;SDS011;20423;49.448;9.056;2022-10-13T08:01:07;91.70;;;36.83;;
34146;SDS011;20423;49.448;9.056;2022-10-13T08:03:36;76.88;;;34.75;;
34146;SDS011;20423;49.448;9.056;2022-10-13T08:06:03;69.43;;;28.83;;
34146;SDS011;20423;49.448;9.056;2022-10-13T08:08:30;58.10;;;26.60;;
34146;SDS011;20423;49.448;9.056;2022-10-13T08:11:00;60.47;;;26.10;;
34146;SDS011;20423;49.448;9.056;2022-10-13T08:13:32;63.88;;;28.00;;
34146;SDS011;20423;49.448;9.056;2022-10-13T08:16:08;68.00;;;29.27;;
34146;SDS011;20423;49.448;9.056;2022-10-13T08:18:34;71.70;;;31.38;;
34146;SDS011;20423;49.448;9.056;2022-10-13T08:21:00;64.88;;;28.67;;
34146;SDS011;20423;49.448;9.056;2022-10-13T08:23:27;64.90;;;29.67;;
34146;SDS011;20423;49.448;9.056;2022-10-13T08:25:59;60.05;;;29.52;;
34146;SDS011;20423;49.448;9.056;2022-10-13T08:32:12;58.13;;;28.02;;
34146;SDS011;20423;49.448;9.056;2022-10-13T08:34:38;55.60;;;27.40;;
34146;SDS011;20423;49.448;9.056;2022-10-13T08:37:03;50.00;;;26.70;;
34146;SDS011;20423;49.448;9.056;2022-10-13T08:39:29;52.90;;;28.58;;
34146;SDS011;20423;49.448;9.056;2022-10-13T08:41:55;58.88;;;27.83;;
34146;SDS011;20423;49.448;9.056;2022-10-13T08:44:23;59.25;;;28.90;;
34146;SDS011;20423;49.448;9.056;2022-10-13T08:50:54;71.75;;;29.08;;
34146;SDS011;20423;49.448;9.056;2022-10-13T08:53:24;145.88;;;32.92;;
34146;SDS011;20423;49.448;9.056;2022-10-13T08:55:57;77.65;;;31.95;;
34146;SDS011;20423;49.448;9.056;2022-10-13T08:58:45;61.13;;;30.67;;
34146;SDS011;20423;49.448;9.056;2022-10-13T09:01:20;56.88;;;30.63;;
34146;SDS011;20423;49.448;9.056;2022-10-13T09:06:25;57.28;;;30.08;;
34146;SDS011;20423;49.448;9.056;2022-10-13T09:09:00;50.08;;;27.48;;
34146;SDS011;20423;49.448;9.056;2022-10-13T09:11:29;52.40;;;26.17;;
34146;SDS011;20423;49.448;9.056;2022-10-13T09:14:00;47.28;;;25.85;;
34146;SDS011;20423;49.448;9.056;2022-10-13T09:16:39;45.97;;;25.75;;
34146;SDS011;20423;49.448;9.056;2022-10-13T09:19:14;48.50;;;26.33;;
34146;SDS011;20423;49.448;9.056;2022-10-13T09:22:23;48.47;;;25.10;;
34146;SDS011;20423;49.448;9.056;2022-10-13T09:32:55;42.95;;;25.70;;
34146;SDS011;20423;49.448;9.056;2022-10-13T09:35:44;56.35;;;25.70;;
34146;SDS011;20423;49.448;9.056;2022-10-13T09:38:13;45.13;;;25.88;;
34146;SDS011;20423;49.448;9.056;2022-10-13T09:40:55;44.40;;;23.38;;
34146;SDS011;20423;49.448;9.056;2022-10-13T09:43:40;46.97;;;25.75;;
34146;SDS011;20423;49.448;9.056;2022-10-13T09:46:25;41.58;;;22.88;;
34146;SDS011;20423;49.448;9.056;2022-10-13T09:49:07;50.80;;;24.20;;
34146;SDS011;20423;49.448;9.056;2022-10-13T09:51:45;47.22;;;24.10;;
34146;SDS011;20423;49.448;9.056;2022-10-13T09:59:35;48.97;;;24.75;;
34146;SDS011;20423;49.448;9.056;2022-10-13T10:10:24;38.70;;;20.45;;
34146;SDS011;20423;49.448;9.056;2022-10-13T10:12:59;38.55;;;20.75;;
34146;SDS011;20423;49.448;9.056;2022-10-13T10:18:17;47.47;;;21.88;;
34146;SDS011;20423;49.448;9.056;2022-10-13T10:23:39;46.22;;;21.30;;
34146;SDS011;20423;49.448;9.056;2022-10-13T10:31:36;39.40;;;22.27;;
34146;SDS011;20423;49.448;9.056;2022-10-13T10:37:17;46.85;;;22.33;;
34146;SDS011;20423;49.448;9.056;2022-10-13T10:40:00;51.63;;;23.02;;
34146;SDS011;20423;49.448;9.056;2022-10-13T10:45:32;44.63;;;24.02;;
34146;SDS011;20423;49.448;9.056;2022-10-13T10:48:00;50.88;;;26.50;;
34146;SDS011;20423;49.448;9.056;2022-10-13T10:50:41;60.08;;;27.55;;
34146;SDS011;20423;49.448;9.056;2022-10-13T10:55:50;50.60;;;27.67;;
34146;SDS011;20423;49.448;9.056;2022-10-13T10:58:37;53.60;;;28.75;;
34146;SDS011;20423;49.448;9.056;2022-10-13T11:17:26;62.78;;;29.83;;
34146;SDS011;20423;49.448;9.056;2022-10-13T11:19:53;64.18;;;30.27;;
34146;SDS011;20423;49.448;9.056;2022-10-13T11:22:29;67.68;;;34.00;;
34146;SDS011;20423;49.448;9.056;2022-10-13T11:24:59;80.75;;;33.10;;
34146;SDS011;20423;49.448;9.056;2022-10-13T11:27:27;72.05;;;32.22;;
34146;SDS011;20423;49.448;9.056;2022-10-13T11:30:37;66.53;;;33.17;;
34146;SDS011;20423;49.448;9.056;2022-10-13T11:34:02;66.40;;;34.08;;
34146;SDS011;20423;49.448;9.056;2022-10-13T11:42:04;71.63;;;35.67;;
34146;SDS011;20423;49.448;9.056;2022-10-13T11:54:03;50.33;;;27.30;;
34146;SDS011;20423;49.448;9.056;2022-10-13T11:56:49;60.05;;;27.10;;
34146;SDS011;20423;49.448;9.056;2022-10-13T12:04:37;41.95;;;22.80;;
34146;SDS011;20423;49.448;9.056;2022-10-13T12:07:09;51.53;;;25.33;;
34146;SDS011;20423;49.448;9.056;2022-10-13T12:12:19;51.30;;;25.45;;
34146;SDS011;20423;49.448;9.056;2022-10-13T12:14:48;42.70;;;24.45;;
34146;SDS011;20423;49.448;9.056;2022-10-13T12:19:51;44.55;;;24.08;;
34146;SDS011;20423;49.448;9.056;2022-10-13T12:22:18;51.67;;;23.02;;
34146;SDS011;20423;49.448;9.056;2022-10-13T12:24:55;50.00;;;25.17;;
34146;SDS011;20423;49.448;9.056;2022-10-13T12:27:23;50.08;;;25.45;;
34146;SDS011;20423;49.448;9.056;2022-10-13T12:29:49;58.65;;;23.70;;
34146;SDS011;20423;49.448;9.056;2022-10-13T12:32:22;43.25;;;22.45;;
34146;SDS011;20423;49.448;9.056;2022-10-13T12:34:50;44.42;;;23.40;;
34146;SDS011;20423;49.448;9.056;2022-10-13T12:37:29;41.80;;;20.65;;
34146;SDS011;20423;49.448;9.056;2022-10-13T12:39:58;41.47;;;21.23;;
34146;SDS011;20423;49.448;9.056;2022-10-13T12:42:27;37.50;;;21.35;;
34146;SDS011;20423;49.448;9.056;2022-10-13T12:44:59;41.38;;;20.45;;
34146;SDS011;20423;49.448;9.056;2022-10-13T12:52:49;46.30;;;22.58;;
34146;SDS011;20423;49.448;9.056;2022-10-13T12:55:18;40.28;;;23.13;;
34146;SDS011;20423;49.448;9.056;2022-10-13T12:57:46;50.75;;;23.67;;
34146;SDS011;20423;49.448;9.056;2022-10-13T13:05:37;43.80;;;21.65;;
34146;SDS011;20423;49.448;9.056;2022-10-13T13:10:57;43.03;;;22.23;;
34146;SDS011;20423;49.448;9.056;2022-10-13T13:15:51;47.40;;;23.23;;
34146;SDS011;20423;49.448;9.056;2022-10-13T13:18:32;41.05;;;23.02;;
34146;SDS011;20423;49.448;9.056;2022-10-13T13:21:04;46.45;;;25.23;;
34146;SDS011;20423;49.448;9.056;2022-10-13T13:23:30;47.42;;;24.35;;
34146;SDS011;20423;49.448;9.056;2022-10-13T13:28:50;39.88;;;22.75;;
34146;SDS011;20423;49.448;9.056;2022-10-13T13:31:19;43.58;;;23.52;;
34146;SDS011;20423;49.448;9.056;2022-10-13T13:37:37;44.60;;;22.60;;
34146;SDS011;20423;49.448;9.056;2022-10-13T13:40:25;46.05;;;24.63;;
34146;SDS011;20423;49.448;9.056;2022-10-13T13:42:52;52.10;;;26.25;;
34146;SDS011;20423;49.448;9.056;2022-10-13T13:45:19;47.22;;;24.08;;
34146;SDS011;20423;49.448;9.056;2022-10-13T13:47:47;46.20;;;24.30;;
34146;SDS011;20423;49.448;9.056;2022-10-13T13:50:21;49.33;;;25.27;;
34146;SDS011;20423;49.448;9.056;2022-10-13T13:52:54;55.50;;;27.23;;
34146;SDS011;20423;49.448;9.056;2022-10-13T13:55:21;46.05;;;23.20;;
34146;SDS011;20423;49.448;9.056;2022-10-13T13:57:47;38.92;;;23.67;;
34146;SDS011;20423;49.448;9.056;2022-10-13T14:00:13;48.35;;;27.20;;
34146;SDS011;20423;49.448;9.056;2022-10-13T14:02:42;51.95;;;23.58;;
34146;SDS011;20423;49.448;9.056;2022-10-13T14:05:09;48.55;;;24.70;;
34146;SDS011;20423;49.448;9.056;2022-10-13T14:07:35;45.45;;;25.50;;
34146;SDS011;20423;49.448;9.056;2022-10-13T14:10:01;46.97;;;24.38;;
34146;SDS011;20423;49.448;9.056;2022-10-13T14:12:28;46.37;;;26.37;;
34146;SDS011;20423;49.448;9.056;2022-10-13T14:14:55;48.53;;;25.67;;
34146;SDS011;20423;49.448;9.056;2022-10-13T14:17:21;54.78;;;26.35;;
34146;SDS011;20423;49.448;9.056;2022-10-13T14:19:47;52.92;;;27.40;;
34146;SDS011;20423;49.448;9.056;2022-10-13T14:22:12;58.42;;;26.10;;
34146;SDS011;20423;49.448;9.056;2022-10-13T14:24:38;46.08;;;24.88;;
34146;SDS011;20423;49.448;9.056;2022-10-13T14:27:06;59.00;;;30.30;;
34146;SDS011;20423;49.448;9.056;2022-10-13T14:29:35;69.85;;;35.17;;
34146;SDS011;20423;49.448;9.056;2022-10-13T14:32:01;66.18;;;28.90;;
34146;SDS011;20423;49.448;9.056;2022-10-13T14:34:27;45.58;;;23.73;;
34146;SDS011;20423;49.448;9.056;2022-10-13T14:36:52;48.75;;;25.15;;
34146;SDS011;20423;49.448;9.056;2022-10-13T14:39:19;52.80;;;26.00;;
34146;SDS011;20423;49.448;9.056;2022-10-13T14:41:45;38.45;;;22.40;;
34146;SDS011;20423;49.448;9.056;2022-10-13T14:44:11;37.80;;;21.05;;
34146;SDS011;20423;49.448;9.056;2022-10-13T14:46:40;39.73;;;21.53;;
34146;SDS011;20423;49.448;9.056;2022-10-13T14:49:06;42.40;;;23.95;;
34146;SDS011;20423;49.448;9.056;2022-10-13T14:51:36;35.42;;;21.40;;
34146;SDS011;20423;49.448;9.056;2022-10-13T14:54:02;56.80;;;24.90;;
34146;SDS011;20423;49.448;9.056;2022-10-13T14:56:29;46.10;;;25.00;;
34146;SDS011;20423;49.448;9.056;2022-10-13T14:58:57;40.40;;;23.90;;
34146;SDS011;20423;49.448;9.056;2022-10-13T15:01:29;40.55;;;23.15;;
34146;SDS011;20423;49.448;9.056;2022-10-13T15:03:55;45.50;;;23.90;;
34146;SDS011;20423;49.448;9.056;2022-10-13T15:06:21;48.20;;;24.85;;
34146;SDS011;20423;49.448;9.056;2022-10-13T15:08:48;43.20;;;24.60;;
34146;SDS011;20423;49.448;9.056;2022-10-13T15:16:07;124.90;;;64.30;;
34146;SDS011;20423;49.448;9.056;2022-10-13T15:18:44;119.15;;;63.90;;
34146;SDS011;20423;49.448;9.056;2022-10-13T15:21:10;89.10;;;50.20;;
34146;SDS011;20423;49.448;9.056;2022-10-13T15:23:36;56.90;;;31.00;;
34146;SDS011;20423;49.448;9.056;2022-10-13T15:26:02;55.60;;;30.20;;
34146;SDS011;20423;49.448;9.056;2022-10-13T15:28:35;53.60;;;26.20;;
34146;SDS011;20423;49.448;9.056;2022-10-13T15:31:03;48.30;;;28.00;;
34146;SDS011;20423;49.448;9.056;2022-10-13T15:33:30;46.77;;;25.73;;
34146;SDS011;20423;49.448;9.056;2022-10-13T15:35:56;49.05;;;27.55;;
34146;SDS011;20423;49.448;9.056;2022-10-13T15:38:22;55.70;;;29.75;;
34146;SDS011;20423;49.448;9.056;2022-10-13T15:40:48;50.00;;;28.03;;
34146;SDS011;20423;49.448;9.056;2022-10-13T15:43:15;46.85;;;26.20;;
34146;SDS011;20423;49.448;9.056;2022-10-13T15:45:42;48.10;;;25.80;;
34146;SDS011;20423;49.448;9.056;2022-10-13T15:48:11;46.75;;;25.50;;
34146;SDS011;20423;49.448;9.056;2022-10-13T15:50:37;51.70;;;26.10;;
34146;SDS011;20423;49.448;9.056;2022-10-13T15:53:07;49.60;;;26.65;;
34146;SDS011;20423;49.448;9.056;2022-10-13T15:55:32;51.00;;;26.60;;
34146;SDS011;20423;49.448;9.056;2022-10-13T15:57:58;49.10;;;27.15;;
34146;SDS011;20423;49.448;9.056;2022-10-13T16:00:24;48.45;;;26.10;;
34146;SDS011;20423;49.448;9.056;2022-10-13T16:02:49;46.10;;;25.25;;
34146;SDS011;20423;49.448;9.056;2022-10-13T16:05:16;47.65;;;26.20;;
34146;SDS011;20423;49.448;9.056;2022-10-13T16:08:01;54.80;;;27.00;;
34146;SDS011;20423;49.448;9.056;2022-10-13T16:10:26;53.70;;;27.80;;
34146;SDS011;20423;49.448;9.056;2022-10-13T16:12:52;46.60;;;25.05;;
34146;SDS011;20423;49.448;9.056;2022-10-13T16:15:18;47.65;;;26.05;;
34146;SDS011;20423;49.448;9.056;2022-10-13T16:17:44;48.70;;;26.60;;
34146;SDS011;20423;49.448;9.056;2022-10-13T16:20:10;46.70;;;24.50;;
34146;SDS011;20423;49.448;9.056;2022-10-13T16:22:36;49.63;;;24.83;;
34146;SDS011;20423;49.448;9.056;2022-10-13T16:28:53;42.80;;;24.30;;
34146;SDS011;20423;49.448;9.056;2022-10-13T16:31:20;55.30;;;26.40;;
34146;SDS011;20423;49.448;9.056;2022-10-13T16:33:45;49.85;;;26.20;;
34146;SDS011;20423;49.448;9.056;2022-10-13T16:38:39;58.60;;;24.60;;
34146;SDS011;20423;49.448;9.056;2022-10-13T16:41:06;52.30;;;27.30;;
34146;SDS011;20423;49.448;9.056;2022-10-13T16:43:34;45.40;;;22.60;;
34146;SDS011;20423;49.448;9.056;2022-10-13T16:46:00;46.50;;;23.00;;
34146;SDS011;20423;49.448;9.056;2022-10-13T16:48:29;46.50;;;23.30;;
34146;SDS011;20423;49.448;9.056;2022-10-13T16:50:56;45.90;;;23.00;;
34146;SDS011;20423;49.448;9.056;2022-10-13T16:53:23;55.55;;;27.10;;
34146;SDS011;20423;49.448;9.056;2022-10-13T16:55:49;54.20;;;27.10;;
34146;SDS011;20423;49.448;9.056;2022-10-13T16:58:15;56.40;;;28.95;;
34146;SDS011;20423;49.448;9.056;2022-10-13T17:00:41;55.10;;;29.45;;
34146;SDS011;20423;49.448;9.056;2022-10-13T17:03:06;52.10;;;27.95;;
34146;SDS011;20423;49.448;9.056;2022-10-13T17:08:58;71.15;;;30.75;;
34146;SDS011;20423;49.448;9.056;2022-10-13T17:11:27;55.65;;;30.00;;
34146;SDS011;20423;49.448;9.056;2022-10-13T17:13:55;63.90;;;31.20;;
34146;SDS011;20423;49.448;9.056;2022-10-13T17:19:12;58.10;;;29.80;;
34146;SDS011;20423;49.448;9.056;2022-10-13T17:21:38;49.00;;;31.60;;
34146;SDS011;20423;49.448;9.056;2022-10-13T17:24:06;69.30;;;37.90;;
34146;SDS011;20423;49.448;9.056;2022-10-13T17:26:33;67.10;;;33.30;;
34146;SDS011;20423;49.448;9.056;2022-10-13T17:28:59;58.90;;;32.40;;
34146;SDS011;20423;49.448;9.056;2022-10-13T17:31:24;67.20;;;34.00;;
34146;SDS011;20423;49.448;9.056;2022-10-13T17:33:50;70.35;;;35.10;;
34146;SDS011;20423;49.448;9.056;2022-10-13T17:36:18;70.95;;;36.05;;
34146;SDS011;20423;49.448;9.056;2022-10-13T17:38:46;78.20;;;39.90;;